sensor_id;sensor_type;location;lat;lon;timestamp;temperature;humidity
40077;DHT22;25777;47.824;18.982;2022-12-18T00:03:52;-1.40;99.90
40077;DHT22;25777;47.824;18.982;2022-12-18T00:06:19;-1.40;99.90
40077;DHT22;25777;47.824;18.982;2022-12-18T00:08:46;-1.50;99.90
40077;DHT22;25777;47.824;18.982;2022-12-18T00:11:15;-1.70;99.90
40077;DHT22;25777;47.824;18.982;2022-12-18T00:13:42;-1.70;99.90
40077;DHT22;25777;47.824;18.982;2022-12-18T00:16:13;-2.00;99.90
40077;DHT22;25777;47.824;18.982;2022-12-18T00:18:40;-2.10;99.90
40077;DHT22;25777;47.824;18.982;2022-12-18T00:21:08;-2.00;99.90
40077;DHT22;25777;47.824;18.982;2022-12-18T00:23:36;-2.00;99.90
40077;DHT22;25777;47.824;18.982;2022-12-18T00:26:08;-2.10;99.90
40077;DHT22;25777;47.824;18.982;2022-12-18T00:28:35;-2.40;99.90
40077;DHT22;25777;47.824;18.982;2022-12-18T00:31:06;-2.60;99.90
40077;DHT22;25777;47.824;18.982;2022-12-18T00:33:33;-2.60;99.90
40077;DHT22;25777;47.824;18.982;2022-12-18T00:36:09;-2.40;99.90
40077;DHT22;25777;47.824;18.982;2022-12-18T00:38:35;-2.40;99.90
40077;DHT22;25777;47.824;18.982;2022-12-18T00:41:01;-2.50;99.90
40077;DHT22;25777;47.824;18.982;2022-12-18T00:43:27;-2.50;99.90
40077;DHT22;25777;47.824;18.982;2022-12-18T00:45:54;-2.60;99.90
40077;DHT22;25777;47.824;18.982;2022-12-18T00:48:20;-2.60;99.90
40077;DHT22;25777;47.824;18.982;2022-12-18T00:50:48;-2.50;99.90
40077;DHT22;25777;47.824;18.982;2022-12-18T00:53:14;-2.50;99.90
40077;DHT22;25777;47.824;18.982;2022-12-18T00:55:41;-2.60;99.90
40077;DHT22;25777;47.824;18.982;2022-12-18T00:58:09;-2.70;99.90
40077;DHT22;25777;47.824;18.982;2022-12-18T01:00:35;-2.80;99.90
40077;DHT22;25777;47.824;18.982;2022-12-18T01:03:02;-2.80;99.90
40077;DHT22;25777;47.824;18.982;2022-12-18T01:05:28;-2.80;99.90
40077;DHT22;25777;47.824;18.982;2022-12-18T01:07:55;-2.80;99.90
40077;DHT22;25777;47.824;18.982;2022-12-18T01:10:21;-2.80;99.90
40077;DHT22;25777;47.824;18.982;2022-12-18T01:12:49;-2.70;99.90
40077;DHT22;25777;47.824;18.982;2022-12-18T01:15:15;-2.70;99.90
40077;DHT22;25777;47.824;18.982;2022-12-18T01:17:42;-2.60;99.90
40077;DHT22;25777;47.824;18.982;2022-12-18T01:20:09;-2.70;99.90
40077;DHT22;25777;47.824;18.982;2022-12-18T01:22:36;-2.80;99.90
40077;DHT22;25777;47.824;18.982;2022-12-18T01:25:04;-3.00;99.90
40077;DHT22;25777;47.824;18.982;2022-12-18T01:27:31;-2.90;99.90
40077;DHT22;25777;47.824;18.982;2022-12-18T01:29:57;-2.90;99.90
40077;DHT22;25777;47.824;18.982;2022-12-18T01:32:23;-2.90;99.90
40077;DHT22;25777;47.824;18.982;2022-12-18T01:34:49;-2.80;99.90
40077;DHT22;25777;47.824;18.982;2022-12-18T01:37:15;-3.00;99.90
40077;DHT22;25777;47.824;18.982;2022-12-18T01:39:41;-3.00;99.90
40077;DHT22;25777;47.824;18.982;2022-12-18T01:42:12;-3.20;99.90
40077;DHT22;25777;47.824;18.982;2022-12-18T01:49:50;-3.20;99.90
40077;DHT22;25777;47.824;18.982;2022-12-18T01:52:17;-3.20;99.90
40077;DHT22;25777;47.824;18.982;2022-12-18T01:54:45;-3.20;99.90
40077;DHT22;25777;47.824;18.982;2022-12-18T01:57:13;-3.30;99.90
40077;DHT22;25777;47.824;18.982;2022-12-18T01:59:41;-3.30;99.90
40077;DHT22;25777;47.824;18.982;2022-12-18T02:02:08;-3.00;99.90
40077;DHT22;25777;47.824;18.982;2022-12-18T02:04:34;-2.90;99.90
40077;DHT22;25777;47.824;18.982;2022-12-18T02:09:50;-3.00;99.90
40077;DHT22;25777;47.824;18.982;2022-12-18T02:12:24;-3.00;99.90
40077;DHT22;25777;47.824;18.982;2022-12-18T02:15:13;-3.00;99.90
40077;DHT22;25777;47.824;18.982;2022-12-18T02:17:50;-3.10;99.90
40077;DHT22;25777;47.824;18.982;2022-12-18T02:20:35;-3.10;99.90
40077;DHT22;25777;47.824;18.982;2022-12-18T02:23:41;-3.00;99.90
40077;DHT22;25777;47.824;18.982;2022-12-18T02:26:30;-3.10;99.90
40077;DHT22;25777;47.824;18.982;2022-12-18T02:29:11;-3.10;99.90
40077;DHT22;25777;47.824;18.982;2022-12-18T02:32:00;-3.00;99.90
40077;DHT22;25777;47.824;18.982;2022-12-18T02:34:31;-3.10;99.90
40077;DHT22;25777;47.824;18.982;2022-12-18T02:37:02;-3.40;99.90
40077;DHT22;25777;47.824;18.982;2022-12-18T02:39:34;-3.50;99.90
40077;DHT22;25777;47.824;18.982;2022-12-18T02:42:02;-3.40;99.90
40077;DHT22;25777;47.824;18.982;2022-12-18T02:44:35;-3.40;99.90
40077;DHT22;25777;47.824;18.982;2022-12-18T02:47:10;-3.60;99.90
40077;DHT22;25777;47.824;18.982;2022-12-18T02:52:45;-3.60;99.90
40077;DHT22;25777;47.824;18.982;2022-12-18T02:55:45;-3.50;99.90
40077;DHT22;25777;47.824;18.982;2022-12-18T03:01:02;-3.60;99.90
40077;DHT22;25777;47.824;18.982;2022-12-18T03:06:33;-3.60;99.90
40077;DHT22;25777;47.824;18.982;2022-12-18T03:09:12;-3.70;99.90
40077;DHT22;25777;47.824;18.982;2022-12-18T03:11:45;-3.70;99.90
40077;DHT22;25777;47.824;18.982;2022-12-18T03:14:34;-3.70;99.90
40077;DHT22;25777;47.824;18.982;2022-12-18T03:17:07;-3.80;99.90
40077;DHT22;25777;47.824;18.982;2022-12-18T03:19:47;-3.70;99.90
40077;DHT22;25777;47.824;18.982;2022-12-18T03:22:15;-3.70;99.90
40077;DHT22;25777;47.824;18.982;2022-12-18T03:24:46;-3.80;99.90
40077;DHT22;25777;47.824;18.982;2022-12-18T03:27:17;-3.90;99.90
40077;DHT22;25777;47.824;18.982;2022-12-18T03:29:47;-3.90;99.90
40077;DHT22;25777;47.824;18.982;2022-12-18T03:32:27;-3.80;99.90
40077;DHT22;25777;47.824;18.982;2022-12-18T03:34:58;-3.80;99.90
40077;DHT22;25777;47.824;18.982;2022-12-18T03:37:27;-3.80;99.90
40077;DHT22;25777;47.824;18.982;2022-12-18T03:39:53;-4.00;99.90
40077;DHT22;25777;47.824;18.982;2022-12-18T03:42:29;-3.90;99.90
40077;DHT22;25777;47.824;18.982;2022-12-18T03:45:19;-4.00;99.90
40077;DHT22;25777;47.824;18.982;2022-12-18T03:48:08;-3.90;99.90
40077;DHT22;25777;47.824;18.982;2022-12-18T03:51:02;-3.90;99.90
40077;DHT22;25777;47.824;18.982;2022-12-18T03:53:50;-3.80;99.90
40077;DHT22;25777;47.824;18.982;2022-12-18T03:56:19;-3.80;99.90
40077;DHT22;25777;47.824;18.982;2022-12-18T03:58:48;-4.00;99.90
40077;DHT22;25777;47.824;18.982;2022-12-18T04:01:18;-4.20;99.90
40077;DHT22;25777;47.824;18.982;2022-12-18T04:03:49;-4.10;99.90
40077;DHT22;25777;47.824;18.982;2022-12-18T04:06:17;-4.00;99.90
40077;DHT22;25777;47.824;18.982;2022-12-18T04:08:43;-3.90;99.90
40077;DHT22;25777;47.824;18.982;2022-12-18T04:11:09;-4.00;99.90
40077;DHT22;25777;47.824;18.982;2022-12-18T04:13:37;-4.10;99.90
40077;DHT22;25777;47.824;18.982;2022-12-18T04:16:06;-4.10;99.90
40077;DHT22;25777;47.824;18.982;2022-12-18T04:18:34;-4.00;99.90
40077;DHT22;25777;47.824;18.982;2022-12-18T04:21:01;-3.90;99.90
40077;DHT22;25777;47.824;18.982;2022-12-18T04:23:33;-4.00;99.90
40077;DHT22;25777;47.824;18.982;2022-12-18T04:26:03;-4.00;99.90
40077;DHT22;25777;47.824;18.982;2022-12-18T04:28:29;-4.00;99.90
40077;DHT22;25777;47.824;18.982;2022-12-18T04:30:55;-4.00;99.90
40077;DHT22;25777;47.824;18.982;2022-12-18T04:33:35;-3.90;99.90
40077;DHT22;25777;47.824;18.982;2022-12-18T04:36:09;-4.00;99.90
40077;DHT22;25777;47.824;18.982;2022-12-18T04:38:35;-4.00;99.90
40077;DHT22;25777;47.824;18.982;2022-12-18T04:41:05;-4.00;99.90
40077;DHT22;25777;47.824;18.982;2022-12-18T04:43:31;-4.00;99.90
40077;DHT22;25777;47.824;18.982;2022-12-18T04:46:05;-3.90;99.90
40077;DHT22;25777;47.824;18.982;2022-12-18T04:48:38;-3.90;99.90
40077;DHT22;25777;47.824;18.982;2022-12-18T04:51:05;-3.90;99.90
40077;DHT22;25777;47.824;18.982;2022-12-18T04:53:37;-3.90;99.90
40077;DHT22;25777;47.824;18.982;2022-12-18T04:56:22;-3.80;99.90
40077;DHT22;25777;47.824;18.982;2022-12-18T04:58:48;-3.80;99.90
40077;DHT22;25777;47.824;18.982;2022-12-18T05:01:16;-3.80;99.90
40077;DHT22;25777;47.824;18.982;2022-12-18T05:03:44;-3.90;99.90
40077;DHT22;25777;47.824;18.982;2022-12-18T05:06:11;-3.80;99.90
40077;DHT22;25777;47.824;18.982;2022-12-18T05:08:37;-3.90;99.90
40077;DHT22;25777;47.824;18.982;2022-12-18T05:11:12;-4.00;99.90
40077;DHT22;25777;47.824;18.982;2022-12-18T05:13:40;-3.90;99.90
40077;DHT22;25777;47.824;18.982;2022-12-18T05:16:08;-4.00;99.90
40077;DHT22;25777;47.824;18.982;2022-12-18T05:18:35;-4.00;99.90
40077;DHT22;25777;47.824;18.982;2022-12-18T05:21:05;-4.00;99.90
40077;DHT22;25777;47.824;18.982;2022-12-18T05:23:32;-4.00;99.90
40077;DHT22;25777;47.824;18.982;2022-12-18T05:26:03;-3.90;99.90
40077;DHT22;25777;47.824;18.982;2022-12-18T05:28:33;-3.90;99.90
40077;DHT22;25777;47.824;18.982;2022-12-18T05:31:00;-3.80;99.90
40077;DHT22;25777;47.824;18.982;2022-12-18T05:33:31;-3.90;99.90
40077;DHT22;25777;47.824;18.982;2022-12-18T05:36:06;-4.00;99.90
40077;DHT22;25777;47.824;18.982;2022-12-18T05:38:39;-3.90;99.90
40077;DHT22;25777;47.824;18.982;2022-12-18T05:41:15;-3.70;99.90
40077;DHT22;25777;47.824;18.982;2022-12-18T05:43:48;-3.70;99.90
40077;DHT22;25777;47.824;18.982;2022-12-18T05:46:16;-3.70;99.90
40077;DHT22;25777;47.824;18.982;2022-12-18T05:48:44;-3.70;99.90
40077;DHT22;25777;47.824;18.982;2022-12-18T05:51:15;-3.90;99.90
40077;DHT22;25777;47.824;18.982;2022-12-18T05:53:46;-4.00;99.90
40077;DHT22;25777;47.824;18.982;2022-12-18T05:56:17;-4.20;99.90
40077;DHT22;25777;47.824;18.982;2022-12-18T05:58:45;-4.20;99.90
40077;DHT22;25777;47.824;18.982;2022-12-18T06:01:19;-4.10;99.90
40077;DHT22;25777;47.824;18.982;2022-12-18T06:03:57;-4.10;99.90
40077;DHT22;25777;47.824;18.982;2022-12-18T06:06:26;-4.30;99.90
40077;DHT22;25777;47.824;18.982;2022-12-18T06:08:58;-4.40;99.90
40077;DHT22;25777;47.824;18.982;2022-12-18T06:11:40;-4.30;99.90
40077;DHT22;25777;47.824;18.982;2022-12-18T06:14:06;-4.30;99.90
40077;DHT22;25777;47.824;18.982;2022-12-18T06:16:32;-4.30;99.90
40077;DHT22;25777;47.824;18.982;2022-12-18T06:18:59;-4.20;99.90
40077;DHT22;25777;47.824;18.982;2022-12-18T06:21:26;-4.00;99.90
40077;DHT22;25777;47.824;18.982;2022-12-18T06:23:53;-3.80;99.90
40077;DHT22;25777;47.824;18.982;2022-12-18T06:26:23;-3.80;99.90
40077;DHT22;25777;47.824;18.982;2022-12-18T06:28:49;-4.10;99.90
40077;DHT22;25777;47.824;18.982;2022-12-18T06:31:21;-4.30;99.90
40077;DHT22;25777;47.824;18.982;2022-12-18T06:33:57;-4.40;99.90
40077;DHT22;25777;47.824;18.982;2022-12-18T06:36:36;-4.50;99.90
40077;DHT22;25777;47.824;18.982;2022-12-18T06:39:02;-4.40;99.90
40077;DHT22;25777;47.824;18.982;2022-12-18T06:41:28;-4.40;99.90
40077;DHT22;25777;47.824;18.982;2022-12-18T06:43:55;-4.30;99.90
40077;DHT22;25777;47.824;18.982;2022-12-18T06:46:23;-4.20;99.90
40077;DHT22;25777;47.824;18.982;2022-12-18T06:48:49;-4.10;99.90
40077;DHT22;25777;47.824;18.982;2022-12-18T06:51:20;-4.00;99.90
40077;DHT22;25777;47.824;18.982;2022-12-18T06:53:46;-4.00;99.90
40077;DHT22;25777;47.824;18.982;2022-12-18T06:56:18;-3.90;99.90
40077;DHT22;25777;47.824;18.982;2022-12-18T06:58:52;-3.90;99.90
40077;DHT22;25777;47.824;18.982;2022-12-18T07:01:18;-3.90;99.90
40077;DHT22;25777;47.824;18.982;2022-12-18T07:03:51;-4.20;99.90
40077;DHT22;25777;47.824;18.982;2022-12-18T07:06:24;-4.30;99.90
40077;DHT22;25777;47.824;18.982;2022-12-18T07:08:56;-4.30;99.90
40077;DHT22;25777;47.824;18.982;2022-12-18T07:11:23;-4.30;99.90
40077;DHT22;25777;47.824;18.982;2022-12-18T07:13:50;-4.10;99.90
40077;DHT22;25777;47.824;18.982;2022-12-18T07:16:21;-4.00;99.90
40077;DHT22;25777;47.824;18.982;2022-12-18T07:18:52;-3.90;99.90
40077;DHT22;25777;47.824;18.982;2022-12-18T07:21:24;-3.80;99.90
40077;DHT22;25777;47.824;18.982;2022-12-18T07:23:51;-3.90;99.90
40077;DHT22;25777;47.824;18.982;2022-12-18T07:26:19;-3.70;99.90
40077;DHT22;25777;47.824;18.982;2022-12-18T07:28:46;-3.70;99.90
40077;DHT22;25777;47.824;18.982;2022-12-18T07:31:18;-3.70;99.90
40077;DHT22;25777;47.824;18.982;2022-12-18T07:33:46;-3.80;99.90
40077;DHT22;25777;47.824;18.982;2022-12-18T07:36:27;-4.00;99.90
40077;DHT22;25777;47.824;18.982;2022-12-18T07:38:55;-4.10;99.90
40077;DHT22;25777;47.824;18.982;2022-12-18T07:41:22;-4.20;99.90
40077;DHT22;25777;47.824;18.982;2022-12-18T07:43:52;-4.30;99.90
40077;DHT22;25777;47.824;18.982;2022-12-18T07:46:19;-4.20;99.90
40077;DHT22;25777;47.824;18.982;2022-12-18T07:48:47;-4.00;99.90
40077;DHT22;25777;47.824;18.982;2022-12-18T07:51:24;-3.90;99.90
40077;DHT22;25777;47.824;18.982;2022-12-18T07:53:50;-3.60;99.90
40077;DHT22;25777;47.824;18.982;2022-12-18T07:56:29;-3.30;99.90
40077;DHT22;25777;47.824;18.982;2022-12-18T07:58:58;-3.20;99.90
40077;DHT22;25777;47.824;18.982;2022-12-18T08:01:33;-3.10;99.90
40077;DHT22;25777;47.824;18.982;2022-12-18T08:04:09;-2.90;99.90
40077;DHT22;25777;47.824;18.982;2022-12-18T08:06:51;-2.90;99.90
40077;DHT22;25777;47.824;18.982;2022-12-18T08:09:20;-2.80;99.90
40077;DHT22;25777;47.824;18.982;2022-12-18T08:11:55;-2.80;99.90
40077;DHT22;25777;47.824;18.982;2022-12-18T08:14:32;-2.80;99.90
40077;DHT22;25777;47.824;18.982;2022-12-18T08:17:00;-2.80;99.90
40077;DHT22;25777;47.824;18.982;2022-12-18T08:19:28;-2.80;99.90
40077;DHT22;25777;47.824;18.982;2022-12-18T08:21:54;-2.90;99.90
40077;DHT22;25777;47.824;18.982;2022-12-18T08:24:28;-2.90;99.90
40077;DHT22;25777;47.824;18.982;2022-12-18T08:26:58;-2.80;99.90
40077;DHT22;25777;47.824;18.982;2022-12-18T08:29:27;-2.80;99.90
40077;DHT22;25777;47.824;18.982;2022-12-18T08:31:55;-2.70;99.90
40077;DHT22;25777;47.824;18.982;2022-12-18T08:34:24;-2.50;99.90
40077;DHT22;25777;47.824;18.982;2022-12-18T08:36:59;-2.50;99.90
40077;DHT22;25777;47.824;18.982;2022-12-18T08:39:25;-2.60;99.90
40077;DHT22;25777;47.824;18.982;2022-12-18T08:41:56;-2.50;99.90
40077;DHT22;25777;47.824;18.982;2022-12-18T08:44:40;-2.40;99.90
40077;DHT22;25777;47.824;18.982;2022-12-18T08:47:07;-2.30;99.90
40077;DHT22;25777;47.824;18.982;2022-12-18T08:49:35;-2.00;99.90
40077;DHT22;25777;47.824;18.982;2022-12-18T08:52:01;-1.90;99.90
40077;DHT22;25777;47.824;18.982;2022-12-18T08:54:39;-2.00;99.90
40077;DHT22;25777;47.824;18.982;2022-12-18T08:57:05;-2.00;99.90
40077;DHT22;25777;47.824;18.982;2022-12-18T08:59:34;-2.00;99.90
40077;DHT22;25777;47.824;18.982;2022-12-18T09:02:00;-1.90;99.90
40077;DHT22;25777;47.824;18.982;2022-12-18T09:04:31;-1.80;99.90
40077;DHT22;25777;47.824;18.982;2022-12-18T09:06:57;-1.60;99.90
40077;DHT22;25777;47.824;18.982;2022-12-18T09:09:24;-1.70;99.90
40077;DHT22;25777;47.824;18.982;2022-12-18T09:11:51;-1.50;99.90
40077;DHT22;25777;47.824;18.982;2022-12-18T09:14:17;-1.30;99.90
40077;DHT22;25777;47.824;18.982;2022-12-18T09:16:44;-0.90;99.90
40077;DHT22;25777;47.824;18.982;2022-12-18T09:19:13;-1.50;99.90
40077;DHT22;25777;47.824;18.982;2022-12-18T09:21:43;-1.30;99.90
40077;DHT22;25777;47.824;18.982;2022-12-18T09:24:15;-1.20;99.90
40077;DHT22;25777;47.824;18.982;2022-12-18T09:26:42;-1.10;99.90
40077;DHT22;25777;47.824;18.982;2022-12-18T09:29:09;-0.70;99.90
40077;DHT22;25777;47.824;18.982;2022-12-18T09:31:38;-1.00;99.90
40077;DHT22;25777;47.824;18.982;2022-12-18T09:34:07;-0.60;99.90
40077;DHT22;25777;47.824;18.982;2022-12-18T09:36:34;-0.60;99.90
40077;DHT22;25777;47.824;18.982;2022-12-18T09:39:00;-1.00;99.90
40077;DHT22;25777;47.824;18.982;2022-12-18T09:47:33;-0.60;99.90
40077;DHT22;25777;47.824;18.982;2022-12-18T09:50:06;0.20;99.90
40077;DHT22;25777;47.824;18.982;2022-12-18T09:52:45;-0.20;99.90
40077;DHT22;25777;47.824;18.982;2022-12-18T09:55:36;0.10;99.90
40077;DHT22;25777;47.824;18.982;2022-12-18T10:00:36;0.60;99.90
40077;DHT22;25777;47.824;18.982;2022-12-18T10:03:13;1.20;99.90
40077;DHT22;25777;47.824;18.982;2022-12-18T10:06:02;1.40;99.90
40077;DHT22;25777;47.824;18.982;2022-12-18T10:11:34;1.50;99.90
40077;DHT22;25777;47.824;18.982;2022-12-18T10:14:33;1.40;99.90
40077;DHT22;25777;47.824;18.982;2022-12-18T10:19:58;0.70;99.90
40077;DHT22;25777;47.824;18.982;2022-12-18T10:22:39;0.50;99.90
40077;DHT22;25777;47.824;18.982;2022-12-18T10:25:19;0.60;99.90
40077;DHT22;25777;47.824;18.982;2022-12-18T10:27:53;0.60;99.90
40077;DHT22;25777;47.824;18.982;2022-12-18T10:30:23;1.40;99.90
40077;DHT22;25777;47.824;18.982;2022-12-18T10:32:49;1.50;99.90
40077;DHT22;25777;47.824;18.982;2022-12-18T10:35:24;1.00;99.90
40077;DHT22;25777;47.824;18.982;2022-12-18T10:41:03;1.40;99.90
40077;DHT22;25777;47.824;18.982;2022-12-18T10:43:34;0.90;99.90
40077;DHT22;25777;47.824;18.982;2022-12-18T10:48:30;1.00;99.90
40077;DHT22;25777;47.824;18.982;2022-12-18T10:50:57;1.60;99.90
40077;DHT22;25777;47.824;18.982;2022-12-18T10:53:30;1.50;99.90
40077;DHT22;25777;47.824;18.982;2022-12-18T10:56:00;1.70;99.90
40077;DHT22;25777;47.824;18.982;2022-12-18T10:58:32;1.50;99.90
40077;DHT22;25777;47.824;18.982;2022-12-18T11:08:31;0.90;99.90
40077;DHT22;25777;47.824;18.982;2022-12-18T11:10:57;0.80;99.90
40077;DHT22;25777;47.824;18.982;2022-12-18T11:13:26;0.60;99.90
40077;DHT22;25777;47.824;18.982;2022-12-18T11:15:52;0.50;99.90
40077;DHT22;25777;47.824;18.982;2022-12-18T11:21:12;0.70;99.90
40077;DHT22;25777;47.824;18.982;2022-12-18T11:23:53;0.70;99.90
40077;DHT22;25777;47.824;18.982;2022-12-18T11:26:19;0.70;99.90
40077;DHT22;25777;47.824;18.982;2022-12-18T11:28:50;0.70;99.90
40077;DHT22;25777;47.824;18.982;2022-12-18T11:31:28;0.50;99.90
40077;DHT22;25777;47.824;18.982;2022-12-18T11:36:38;0.60;99.90
40077;DHT22;25777;47.824;18.982;2022-12-18T11:39:14;0.40;99.90
40077;DHT22;25777;47.824;18.982;2022-12-18T11:41:54;0.50;99.90
40077;DHT22;25777;47.824;18.982;2022-12-18T11:44:54;0.50;99.90
40077;DHT22;25777;47.824;18.982;2022-12-18T11:47:44;0.60;99.90
40077;DHT22;25777;47.824;18.982;2022-12-18T11:50:17;0.60;99.90
40077;DHT22;25777;47.824;18.982;2022-12-18T11:52:44;0.50;99.90
40077;DHT22;25777;47.824;18.982;2022-12-18T11:55:16;0.50;99.90
40077;DHT22;25777;47.824;18.982;2022-12-18T11:57:58;0.60;99.90
40077;DHT22;25777;47.824;18.982;2022-12-18T12:00:28;0.50;99.90
40077;DHT22;25777;47.824;18.982;2022-12-18T12:11:19;0.40;99.90
40077;DHT22;25777;47.824;18.982;2022-12-18T12:14:22;0.30;99.90
40077;DHT22;25777;47.824;18.982;2022-12-18T12:16:59;0.40;99.90
40077;DHT22;25777;47.824;18.982;2022-12-18T12:20:06;0.30;99.90
40077;DHT22;25777;47.824;18.982;2022-12-18T12:23:06;0.30;99.90
40077;DHT22;25777;47.824;18.982;2022-12-18T12:26:06;0.30;99.60
40077;DHT22;25777;47.824;18.982;2022-12-18T12:39:35;0.20;99.90
40077;DHT22;25777;47.824;18.982;2022-12-18T12:42:14;0.10;99.90
40077;DHT22;25777;47.824;18.982;2022-12-18T12:45:03;0.00;99.90
40077;DHT22;25777;47.824;18.982;2022-12-18T12:47:38;0.00;99.90
40077;DHT22;25777;47.824;18.982;2022-12-18T12:50:11;0.10;99.90
40077;DHT22;25777;47.824;18.982;2022-12-18T12:52:54;0.20;99.90
40077;DHT22;25777;47.824;18.982;2022-12-18T12:55:26;0.20;99.90
40077;DHT22;25777;47.824;18.982;2022-12-18T12:58:17;0.10;99.90
40077;DHT22;25777;47.824;18.982;2022-12-18T13:01:37;0.00;99.90
40077;DHT22;25777;47.824;18.982;2022-12-18T13:09:22;-0.20;99.90
40077;DHT22;25777;47.824;18.982;2022-12-18T13:12:04;-0.20;99.90
40077;DHT22;25777;47.824;18.982;2022-12-18T13:14:53;-0.20;99.90
40077;DHT22;25777;47.824;18.982;2022-12-18T13:20:15;-0.30;99.90
40077;DHT22;25777;47.824;18.982;2022-12-18T13:22:49;-0.30;99.90
40077;DHT22;25777;47.824;18.982;2022-12-18T13:25:34;-0.30;99.90
40077;DHT22;25777;47.824;18.982;2022-12-18T13:28:49;-0.20;99.90
40077;DHT22;25777;47.824;18.982;2022-12-18T13:31:09;-0.40;99.90
40077;DHT22;25777;47.824;18.982;2022-12-18T13:33:46;-0.60;99.90
40077;DHT22;25777;47.824;18.982;2022-12-18T13:36:31;-0.70;99.90
40077;DHT22;25777;47.824;18.982;2022-12-18T13:41:47;-0.70;99.90
40077;DHT22;25777;47.824;18.982;2022-12-18T13:44:34;-0.60;99.90
40077;DHT22;25777;47.824;18.982;2022-12-18T13:50:26;-0.60;99.90
40077;DHT22;25777;47.824;18.982;2022-12-18T13:52:52;-0.80;99.90
40077;DHT22;25777;47.824;18.982;2022-12-18T13:55:26;-0.90;99.90
40077;DHT22;25777;47.824;18.982;2022-12-18T13:58:02;-0.90;99.90
40077;DHT22;25777;47.824;18.982;2022-12-18T14:00:35;-0.90;99.90
40077;DHT22;25777;47.824;18.982;2022-12-18T14:03:45;-1.10;99.90
40077;DHT22;25777;47.824;18.982;2022-12-18T14:06:11;-1.10;99.90
40077;DHT22;25777;47.824;18.982;2022-12-18T14:08:47;-1.30;99.90
40077;DHT22;25777;47.824;18.982;2022-12-18T14:11:23;-1.30;99.90
40077;DHT22;25777;47.824;18.982;2022-12-18T14:13:49;-1.40;99.90
40077;DHT22;25777;47.824;18.982;2022-12-18T14:16:18;-1.40;99.90
40077;DHT22;25777;47.824;18.982;2022-12-18T14:18:57;-1.50;99.90
40077;DHT22;25777;47.824;18.982;2022-12-18T14:21:55;-1.50;99.90
40077;DHT22;25777;47.824;18.982;2022-12-18T14:24:22;-1.60;99.90
40077;DHT22;25777;47.824;18.982;2022-12-18T14:33:25;-1.60;99.90
40077;DHT22;25777;47.824;18.982;2022-12-18T14:36:03;-1.70;99.90
40077;DHT22;25777;47.824;18.982;2022-12-18T14:38:40;-1.70;99.90
40077;DHT22;25777;47.824;18.982;2022-12-18T14:41:18;-1.80;99.90
40077;DHT22;25777;47.824;18.982;2022-12-18T14:43:51;-1.80;99.90
40077;DHT22;25777;47.824;18.982;2022-12-18T14:46:35;-1.90;99.90
40077;DHT22;25777;47.824;18.982;2022-12-18T14:51:54;-1.90;99.90
40077;DHT22;25777;47.824;18.982;2022-12-18T14:54:35;-2.10;99.90
40077;DHT22;25777;47.824;18.982;2022-12-18T15:00:31;-2.10;99.90
40077;DHT22;25777;47.824;18.982;2022-12-18T15:03:07;-2.20;99.90
40077;DHT22;25777;47.824;18.982;2022-12-18T15:05:45;-2.10;99.90
40077;DHT22;25777;47.824;18.982;2022-12-18T15:08:36;-2.10;99.90
40077;DHT22;25777;47.824;18.982;2022-12-18T15:11:03;-2.30;99.90
40077;DHT22;25777;47.824;18.982;2022-12-18T15:13:49;-2.50;99.90
40077;DHT22;25777;47.824;18.982;2022-12-18T15:16:15;-2.60;99.90
40077;DHT22;25777;47.824;18.982;2022-12-18T15:18:42;-2.70;99.90
40077;DHT22;25777;47.824;18.982;2022-12-18T15:21:20;-2.70;99.90
40077;DHT22;25777;47.824;18.982;2022-12-18T15:23:53;-2.70;99.90
40077;DHT22;25777;47.824;18.982;2022-12-18T15:26:22;-2.80;99.90
40077;DHT22;25777;47.824;18.982;2022-12-18T15:34:09;-2.80;99.90
40077;DHT22;25777;47.824;18.982;2022-12-18T15:36:35;-2.80;99.90
40077;DHT22;25777;47.824;18.982;2022-12-18T15:39:16;-2.80;99.90
40077;DHT22;25777;47.824;18.982;2022-12-18T15:41:52;-2.90;99.90
40077;DHT22;25777;47.824;18.982;2022-12-18T15:44:51;-3.00;99.90
40077;DHT22;25777;47.824;18.982;2022-12-18T15:47:36;-3.00;99.90
40077;DHT22;25777;47.824;18.982;2022-12-18T15:50:01;-3.00;99.90
40077;DHT22;25777;47.824;18.982;2022-12-18T15:52:54;-2.90;99.90
40077;DHT22;25777;47.824;18.982;2022-12-18T15:55:23;-3.10;99.90
40077;DHT22;25777;47.824;18.982;2022-12-18T15:58:10;-3.30;99.90
40077;DHT22;25777;47.824;18.982;2022-12-18T16:00:38;-3.20;99.90
40077;DHT22;25777;47.824;18.982;2022-12-18T16:03:10;-3.10;99.90
40077;DHT22;25777;47.824;18.982;2022-12-18T16:05:36;-3.10;99.90
40077;DHT22;25777;47.824;18.982;2022-12-18T16:08:08;-3.10;99.90
40077;DHT22;25777;47.824;18.982;2022-12-18T16:10:57;-3.20;99.90
40077;DHT22;25777;47.824;18.982;2022-12-18T16:13:29;-3.30;99.90
40077;DHT22;25777;47.824;18.982;2022-12-18T16:15:56;-3.30;99.90
40077;DHT22;25777;47.824;18.982;2022-12-18T16:18:23;-3.40;99.90
40077;DHT22;25777;47.824;18.982;2022-12-18T16:20:49;-3.50;99.90
40077;DHT22;25777;47.824;18.982;2022-12-18T16:23:15;-3.50;99.90
40077;DHT22;25777;47.824;18.982;2022-12-18T16:25:58;-3.50;99.90
40077;DHT22;25777;47.824;18.982;2022-12-18T16:28:24;-3.50;99.90
40077;DHT22;25777;47.824;18.982;2022-12-18T16:30:52;-3.60;99.90
40077;DHT22;25777;47.824;18.982;2022-12-18T16:33:20;-3.60;99.90
40077;DHT22;25777;47.824;18.982;2022-12-18T16:35:52;-3.60;99.90
40077;DHT22;25777;47.824;18.982;2022-12-18T16:38:19;-3.60;99.90
40077;DHT22;25777;47.824;18.982;2022-12-18T16:40:45;-3.60;99.90
40077;DHT22;25777;47.824;18.982;2022-12-18T16:43:38;-3.60;99.90
40077;DHT22;25777;47.824;18.982;2022-12-18T16:46:10;-3.70;99.90
40077;DHT22;25777;47.824;18.982;2022-12-18T16:48:36;-3.90;99.90
40077;DHT22;25777;47.824;18.982;2022-12-18T16:51:04;-3.80;99.90
40077;DHT22;25777;47.824;18.982;2022-12-18T16:53:39;-3.90;99.90
40077;DHT22;25777;47.824;18.982;2022-12-18T16:59:26;-3.90;99.90
40077;DHT22;25777;47.824;18.982;2022-12-18T17:01:55;-3.70;99.90
40077;DHT22;25777;47.824;18.982;2022-12-18T17:04:43;-3.80;99.90
40077;DHT22;25777;47.824;18.982;2022-12-18T17:07:28;-4.00;99.90
40077;DHT22;25777;47.824;18.982;2022-12-18T17:09:57;-4.00;99.90
40077;DHT22;25777;47.824;18.982;2022-12-18T17:12:25;-4.10;99.90
40077;DHT22;25777;47.824;18.982;2022-12-18T17:14:57;-4.20;99.90
40077;DHT22;25777;47.824;18.982;2022-12-18T17:20:47;-4.20;99.90
40077;DHT22;25777;47.824;18.982;2022-12-18T17:23:13;-4.30;99.90
40077;DHT22;25777;47.824;18.982;2022-12-18T17:25:39;-4.30;99.90
40077;DHT22;25777;47.824;18.982;2022-12-18T17:28:06;-4.10;99.90
40077;DHT22;25777;47.824;18.982;2022-12-18T17:30:37;-4.10;99.90
40077;DHT22;25777;47.824;18.982;2022-12-18T17:33:04;-4.30;99.90
40077;DHT22;25777;47.824;18.982;2022-12-18T17:35:36;-4.40;99.90
40077;DHT22;25777;47.824;18.982;2022-12-18T17:38:03;-4.40;99.90
40077;DHT22;25777;47.824;18.982;2022-12-18T17:40:36;-4.50;99.90
40077;DHT22;25777;47.824;18.982;2022-12-18T17:43:40;-4.50;99.90